M I D A S
Marine Information and Data Acquisition System
Tripno 1653 of the Zeeleeuw from 2009-03-04 08:25:30 to 2009-03-04 17:20:54
Back to CruiseResearch ActivitiesStationsMapUnderway DataData graphs

EquipmentUnitsComment
TimeDGPSUTC
LatitudeDGPSDM.mWGS84
LongitudeDGPSDM.mWGS84
TemperatureSBE03/SBE38deg celciusITS90
ConductivitySBE21S/mITS90
SalinitySBE21 Practical Salinity Units
ChlorophylAChelsea fluorimeterg/lCalibrated in Aceton
Missing or incorrect values are displayed as -999
Sea surface data collected by the RV Zeeleeuw from 2009-03-04 08:07:23 to 2009-03-04 17:24:59
Time Latitude Longitude Temperature Conductivity Salinity ChlorophylA
2009-03-04 08:08:28 51°13.663 2°55.959 -999 0.060011 0.34841 -1.279161
2009-03-04 08:09:28 51°13.664 2°55.959 -999 0.059909 0.34786 -1.279161
2009-03-04 08:10:29 51°13.664 2°55.959 -999 0.059909 0.347927 -1.279161
2009-03-04 08:11:28 51°13.664 2°55.959 -999 0.059909 0.347994 -1.279161
2009-03-04 08:12:27 51°13.663 2°55.959 -999 0.059909 0.348067 -1.279161
2009-03-04 08:13:28 51°13.661 2°55.959 -999 0.059909 0.348141 -1.244337
2009-03-04 08:14:28 51°13.664 2°55.959 -999 0.059909 0.348214 -1.279161
2009-03-04 08:15:27 51°13.665 2°55.96 -999 0.059909 0.348288 -1.279161
2009-03-04 08:16:27 51°13.664 2°55.959 -999 0.059909 0.348361 -1.244337
2009-03-04 08:17:28 51°13.664 2°55.959 -999 0.059909 0.348435 -1.279161
2009-03-04 08:18:26 51°13.664 2°55.959 -999 0.059909 0.348515 -1.279161
2009-03-04 08:19:28 51°13.664 2°55.96 -999 0.059909 0.348589 -1.244337
2009-03-04 08:20:28 51°13.664 2°55.959 -999 0.059909 0.348663 -1.279161
2009-03-04 08:21:27 51°13.663 2°55.959 -999 0.059806 0.348112 -1.244337
2009-03-04 08:22:28 51°13.663 2°55.96 -999 0.059806 0.348186 -1.244337
2009-03-04 08:23:27 51°13.663 2°55.96 -999 0.059806 0.348259 -1.244337
2009-03-04 08:24:28 51°13.662 2°55.959 -999 0.059806 0.348333 -1.279161
2009-03-04 08:25:27 51°13.662 2°55.96 -999 0.059806 0.348407 -1.244337
2009-03-04 08:26:26 51°13.661 2°55.96 -999 0.059806 0.348467 -1.279161
2009-03-04 08:27:27 51°13.666 2°55.942 -999 0.059806 0.348521 -1.244337
2009-03-04 08:28:28 51°13.679 2°55.886 -999 0.059806 0.348602 -1.244337
2009-03-04 08:29:28 51°13.685 2°55.825 -999 0.059806 0.348662 -1.279161
2009-03-04 08:30:28 51°13.684 2°55.777 -999 0.059806 0.348736 -1.244337
2009-03-04 08:31:27 51°13.7 2°55.78 -999 0.059806 0.34879 -1.244337
2009-03-04 08:32:28 51°13.734 2°55.742 -999 0.059806 0.348864 -1.244337
2009-03-04 08:33:27 51°13.839 2°55.632 -999 0.059806 0.348918 -1.244337
2009-03-04 08:34:24 51°13.968 2°55.534 -999 0.059806 0.348985 -1.244337
2009-03-04 08:35:25 51°14.109 2°55.429 -999 0.059703 0.348413 -1.244337
2009-03-04 08:36:28 51°14.246 2°55.287 -999 0.059703 0.34848 -1.244337
2009-03-04 08:37:26 51°14.353 2°55.099 -999 0.059703 0.34852 -1.244337
2009-03-04 08:38:24 51°14.462 2°54.875 -999 0.059703 0.348581 -1.244337
2009-03-04 08:39:23 51°14.571 2°54.609 -999 0.059703 0.348635 -1.244337
2009-03-04 08:40:24 51°14.676 2°54.322 -999 0.059703 0.348729 -1.244337
2009-03-04 08:41:24 51°14.772 2°54.037 -999 0.059703 0.348783 -1.244337
2009-03-04 08:42:23 51°14.87 2°53.763 -999 0.059703 0.348871 -1.244337
2009-03-04 08:43:24 51°14.951 2°53.465 -999 0.059703 0.348945 -1.244337
2009-03-04 08:44:24 51°15.029 2°53.166 -999 0.059703 0.349033 -1.244337
2009-03-04 08:45:24 51°15.108 2°52.867 -999 0.059703 0.349128 -1.244337
2009-03-04 08:46:23 51°15.18 2°52.569 -999 0.059703 0.349222 -1.244337
2009-03-04 08:47:24 51°15.245 2°52.254 -999 0.059703 0.349317 -1.244337
2009-03-04 08:48:24 51°15.309 2°51.944 -999 0.059703 0.349405 -1.244337
2009-03-04 08:49:23 51°15.35 2°51.636 -999 3.20471 28.674011 20.764465
2009-03-04 08:50:24 51°15.344 2°51.308 -999 3.322282 33.263131 23.236973
2009-03-04 08:51:24 51°15.353 2°50.982 -999 3.292666 33.168778 24.560287
2009-03-04 08:52:24 51°15.371 2°50.656 -999 3.294531 33.300237 25.396065
2009-03-04 08:53:23 51°15.393 2°50.337 -999 3.303437 33.418812 25.18712
2009-03-04 08:54:24 51°15.414 2°50.007 -999 3.30758 33.489706 24.83888
2009-03-04 08:55:24 51°15.439 2°49.686 -999 3.321975 33.631607 23.794158
2009-03-04 08:56:24 51°15.46 2°49.365 -999 3.335128 33.740584 22.644964
2009-03-04 08:57:23 51°15.48 2°49.049 -999 3.36682 34.02893 21.600243
2009-03-04 08:58:23 51°15.503 2°48.73 -999 3.376141 34.12209 21.043058
2009-03-04 08:59:24 51°15.531 2°48.405 -999 3.372309 34.099103 20.903762
2009-03-04 09:00:24 51°15.561 2°48.085 -999 3.362988 34.024933 21.217178
2009-03-04 09:01:24 51°15.59 2°47.763 -999 3.368788 34.086262 20.938586
2009-03-04 09:02:24 51°15.619 2°47.444 -999 3.373967 34.130111 20.799289
2009-03-04 09:03:23 51°15.646 2°47.129 -999 3.376349 34.149224 20.172456
2009-03-04 09:04:24 51°15.672 2°46.8 -999 3.375417 34.153083 19.092911
2009-03-04 09:05:24 51°15.701 2°46.477 -999 3.35812 34.013106 18.849142
2009-03-04 09:06:23 51°15.749 2°46.166 -999 3.34476 33.90571 20.381401
2009-03-04 09:07:23 51°15.856 2°45.884 -999 3.342171 33.892753 21.878835
2009-03-04 09:08:23 51°15.991 2°45.636 -999 3.346107 33.929426 21.600243
2009-03-04 09:09:24 51°16.131 2°45.392 -999 3.362574 34.066043 23.236973
2009-03-04 09:10:23 51°16.265 2°45.153 -999 3.375106 34.175408 21.983307
2009-03-04 09:11:24 51°16.402 2°44.903 -999 3.38536 34.267678 22.505668
2009-03-04 09:12:23 51°16.534 2°44.659 -999 3.392611 34.33381 22.78426
2009-03-04 09:13:23 51°16.669 2°44.408 -999 3.3952 34.360029 23.89863
2009-03-04 09:14:24 51°16.803 2°44.149 -999 3.396857 34.370965 22.644964
2009-03-04 09:15:24 51°16.933 2°43.897 -999 3.389918 34.322746 23.097677
2009-03-04 09:16:23 51°17.06 2°43.646 -999 3.386707 34.298167 23.202149
2009-03-04 09:17:24 51°17.192 2°43.39 -999 3.383807 34.271313 23.202149
2009-03-04 09:18:23 51°17.319 2°43.139 -999 3.377385 34.232656 25.082648
2009-03-04 09:19:24 51°17.453 2°42.882 -999 3.369618 34.201817 25.605009
2009-03-04 09:20:23 51°17.583 2°42.632 -999 3.370343 34.249416 24.943352
2009-03-04 09:21:24 51°17.713 2°42.371 -999 3.372001 34.285462 23.585214
2009-03-04 09:22:24 51°17.845 2°42.117 -999 3.373865 34.310369 21.635067
2009-03-04 09:23:24 51°17.978 2°41.864 -999 3.376558 34.334014 19.162559
2009-03-04 09:24:24 51°18.108 2°41.612 -999 3.377076 34.337929 18.257134
2009-03-04 09:25:24 51°18.238 2°41.361 -999 3.37604 34.331064 18.048189
2009-03-04 09:26:24 51°18.368 2°41.107 -999 3.374797 34.321859 17.874069
2009-03-04 09:27:24 51°18.498 2°40.851 -999 3.372933 34.308531 18.257134
2009-03-04 09:28:24 51°18.637 2°40.606 -999 3.371587 34.298152 18.222309
2009-03-04 09:29:24 51°18.783 2°40.374 -999 3.37459 34.327246 18.083013
2009-03-04 09:30:24 51°18.924 2°40.134 -999 3.385362 34.415035 16.341811
2009-03-04 09:31:24 51°19.06 2°39.891 -999 3.396548 34.499639 15.331913
2009-03-04 09:32:24 51°19.192 2°39.643 -999 3.393752 34.491336 16.724875
2009-03-04 09:33:24 51°19.322 2°39.393 -999 3.388573 34.460971 17.908893
2009-03-04 09:34:24 51°19.452 2°39.144 -999 3.386502 34.446295 16.481107
2009-03-04 09:35:24 51°19.583 2°38.894 -999 3.391473 34.476274 14.461312
2009-03-04 09:36:24 51°19.715 2°38.646 -999 3.397377 34.511894 13.695182
2009-03-04 09:37:24 51°19.842 2°38.393 -999 3.401209 34.533802 13.103174
2009-03-04 09:38:24 51°19.97 2°38.136 -999 3.40297 34.542028 12.789757
2009-03-04 09:39:24 51°20.098 2°37.883 -999 3.405145 34.551046 12.720109
2009-03-04 09:40:24 51°20.227 2°37.629 -999 3.407113 34.556756 12.720109
2009-03-04 09:41:25 51°20.36 2°37.378 -999 3.409599 34.568296 12.371868
2009-03-04 09:42:24 51°20.484 2°37.128 -999 3.410738 34.567573 12.371868
2009-03-04 09:43:24 51°20.614 2°36.874 -999 3.413949 34.579522 12.232572
2009-03-04 09:44:24 51°20.74 2°36.618 -999 3.416228 34.602259 12.580813
2009-03-04 09:45:24 51°20.873 2°36.363 -999 3.415606 34.605914 12.789757
2009-03-04 09:46:24 51°21.003 2°36.11 -999 3.413949 34.597912 12.441517
2009-03-04 09:47:24 51°21.131 2°35.856 -999 3.412706 34.585856 11.849508
2009-03-04 09:48:24 51°21.285 2°35.646 -999 3.412395 34.588167 12.30222
2009-03-04 09:49:24 51°21.471 2°35.503 -999 3.41136 34.592971 13.137998
2009-03-04 09:50:24 51°21.66 2°35.371 -999 3.406492 34.589497 14.391664
2009-03-04 09:51:24 51°21.852 2°35.245 -999 3.403178 34.58511 14.461312
2009-03-04 09:52:24 51°22.045 2°35.116 -999 3.403281 34.584337 13.904127
2009-03-04 09:53:24 51°22.233 2°34.984 -999 3.405042 34.590612 13.799655
2009-03-04 09:54:24 51°22.423 2°34.858 -999 3.40846 34.599074 13.451414
2009-03-04 09:55:24 51°22.615 2°34.727 -999 3.411981 34.614516 13.172822
2009-03-04 09:56:24 51°22.809 2°34.603 -999 3.414053 34.618459 13.172822
2009-03-04 09:57:24 51°22.999 2°34.473 -999 3.415503 34.626065 13.033525
2009-03-04 09:58:24 51°23.189 2°34.345 -999 3.415917 34.628792 13.172822
2009-03-04 09:59:24 51°23.376 2°34.209 -999 3.417264 34.635228 13.033525
2009-03-04 10:00:24 51°23.524 2°33.997 -999 3.415814 34.632473 13.451414
2009-03-04 10:01:24 51°23.585 2°33.699 -999 3.411774 34.615091 14.043423
2009-03-04 10:02:24 51°23.58 2°33.385 -999 3.408874 34.599864 14.252367
2009-03-04 10:03:24 51°23.592 2°33.06 -999 3.401831 34.560206 14.8792
2009-03-04 10:04:24 51°23.619 2°32.743 -999 3.39572 34.52713 15.227441
2009-03-04 10:05:24 51°23.626 2°32.424 -999 3.391163 34.500887 15.610505
2009-03-04 10:06:24 51°23.597 2°32.106 -999 3.388987 34.479224 15.088145
2009-03-04 10:07:24 51°23.579 2°31.784 -999 3.389195 34.475745 14.70508
2009-03-04 10:08:24 51°23.578 2°31.458 -999 3.390541 34.484166 14.322015
2009-03-04 10:09:24 51°23.59 2°31.134 -999 3.392198 34.492214 13.938951
2009-03-04 10:10:24 51°23.603 2°30.808 -999 3.392612 34.488167 13.41659
2009-03-04 10:11:24 51°23.617 2°30.486 -999 3.399448 34.526541 12.476341
2009-03-04 10:12:24 51°23.63 2°30.218 -999 3.407424 34.564131 11.501267
2009-03-04 10:13:24 51°23.645 2°30.05 -999 3.417782 34.631366 10.630666
2009-03-04 10:14:24 51°23.682 2°29.952 -999 3.425032 34.663528 10.073481
2009-03-04 10:15:24 51°23.745 2°29.943 -999 3.432179 34.705117 9.794888
2009-03-04 10:16:24 51°23.782 2°30.038 -999 3.436323 34.72357 9.72524
2009-03-04 10:17:24 51°23.799 2°30.135 -999 3.43912 34.745286 9.72524
2009-03-04 10:18:24 51°23.809 2°30.202 -999 3.440363 34.751491 9.481472
2009-03-04 10:19:24 51°23.818 2°30.256 -999 3.44057 34.75188 9.342176
2009-03-04 10:20:24 51°23.823 2°30.306 -999 3.439637 34.746258 9.237704
2009-03-04 10:21:24 51°23.822 2°30.378 -999 3.438705 34.74354 9.446648
2009-03-04 10:22:24 51°23.82 2°30.466 -999 3.436737 34.729191 9.481472
2009-03-04 10:23:24 51°23.834 2°30.561 -999 3.433008 34.710553 9.72524
2009-03-04 10:24:24 51°23.86 2°30.657 -999 3.429279 34.688992 10.003833
2009-03-04 10:25:24 51°23.876 2°30.754 -999 3.42669 34.672475 10.386897
2009-03-04 10:26:24 51°23.898 2°30.849 -999 3.423271 34.658255 10.630666
2009-03-04 10:27:24 51°23.937 2°30.933 -999 3.420682 34.64075 10.769962
2009-03-04 10:28:24 51°23.987 2°31.002 -999 3.417574 34.623221 11.257499
2009-03-04 10:29:24 51°24.029 2°31.067 -999 3.414985 34.613448 11.222675
2009-03-04 10:30:24 51°24.065 2°31.132 -999 3.415399 34.613268 11.222675
2009-03-04 10:31:24 51°24.099 2°31.197 -999 3.414674 34.608981 11.327147
2009-03-04 10:32:24 51°24.135 2°31.259 -999 3.414156 34.606056 11.327147
2009-03-04 10:33:24 51°24.178 2°31.313 -999 3.413017 34.602915 11.466443
2009-03-04 10:34:24 51°24.225 2°31.355 -999 3.412706 34.599416 11.327147
2009-03-04 10:35:24 51°24.276 2°31.391 -999 3.412603 34.599218 11.536091
2009-03-04 10:36:24 51°24.329 2°31.428 -999 3.412603 34.59728 11.431619
2009-03-04 10:37:24 51°24.375 2°31.476 -999 3.412396 34.597854 11.396795
2009-03-04 10:38:24 51°24.425 2°31.52 -999 3.411981 34.596095 11.640563
2009-03-04 10:39:24 51°24.477 2°31.559 -999 3.410842 34.588106 11.710211
2009-03-04 10:40:24 51°24.522 2°31.611 -999 3.410738 34.585002 11.849508
2009-03-04 10:41:24 51°24.558 2°31.672 -999 3.410324 34.582272 11.849508
2009-03-04 10:42:24 51°24.587 2°31.738 -999 3.410117 34.57897 11.988804
2009-03-04 10:43:24 51°24.607 2°31.806 -999 3.409702 34.578178 11.745035
2009-03-04 10:44:24 51°24.62 2°31.872 -999 3.409599 34.57798 11.710211
2009-03-04 10:45:25 51°24.628 2°31.942 -999 3.409185 34.57525 11.77986
2009-03-04 10:46:24 51°24.633 2°32.009 -999 3.408563 34.572124 11.77986
2009-03-04 10:47:24 51°24.632 2°32.071 -999 3.407113 34.563536 11.814684
2009-03-04 10:48:24 51°24.632 2°32.113 -999 3.405041 34.550847 11.988804
2009-03-04 10:49:24 51°24.636 2°32.13 -999 3.403902 34.548662 12.162924
2009-03-04 10:50:24 51°24.643 2°32.135 -999 3.403384 34.54573 12.30222
2009-03-04 10:51:24 51°24.654 2°32.134 -999 3.402348 34.537928 12.197748
2009-03-04 10:52:24 51°24.649 2°32.155 -999 3.402452 34.540065 12.023628
2009-03-04 10:53:24 51°24.606 2°32.152 -999 3.402659 34.538525 12.232572
2009-03-04 10:54:24 51°24.519 2°31.976 -999 3.399863 34.522493 12.998701
2009-03-04 10:55:24 51°24.409 2°31.739 -999 3.399345 34.520527 13.172822
2009-03-04 10:56:24 51°24.3 2°31.466 -999 3.399759 34.522293 12.685285
2009-03-04 10:57:24 51°24.2 2°31.177 -999 3.404316 34.550425 12.197748
2009-03-04 10:58:24 51°24.102 2°30.891 -999 3.406284 34.559042 12.162924
2009-03-04 10:59:25 51°23.995 2°30.608 -999 3.408977 34.575823 11.536091
2009-03-04 11:00:24 51°23.871 2°30.362 -999 3.412292 34.591844 11.153027
2009-03-04 11:01:24 51°23.741 2°30.119 -999 3.414156 34.604118 11.222675
2009-03-04 11:02:24 51°23.638 2°29.839 -999 3.413638 34.595382 11.118203
2009-03-04 11:03:24 51°23.575 2°29.57 -999 3.417264 34.626505 10.978906
2009-03-04 11:04:24 51°23.574 2°29.446 -999 3.421096 34.647349 10.66549
2009-03-04 11:05:24 51°23.584 2°29.414 -999 3.426275 34.675566 10.247601
2009-03-04 11:06:24 51°23.594 2°29.399 -999 3.42959 34.690547 12.337044
2009-03-04 11:07:24 51°23.603 2°29.394 -999 3.437356 34.482426 8.680519
2009-03-04 11:08:25 51°23.61 2°29.394 -999 3.453516 34.665476 8.715343
2009-03-04 11:09:24 51°23.616 2°29.393 -999 3.447406 34.724133 8.610871
2009-03-04 11:10:24 51°23.632 2°29.375 -999 3.444402 34.731029 9.098407
2009-03-04 11:11:24 51°23.679 2°29.356 -999 3.444298 34.737597 9.516296
2009-03-04 11:12:24 51°23.705 2°29.418 -999 3.444816 34.737604 9.446648
2009-03-04 11:13:24 51°23.7 2°29.499 -999 3.448959 34.737666 9.377
2009-03-04 11:14:24 51°23.701 2°29.591 -999 3.448752 34.721848 9.342176
2009-03-04 11:15:24 51°23.701 2°29.676 -999 3.447302 34.687328 9.446648
2009-03-04 11:16:24 51°23.708 2°29.727 -999 3.439326 34.687669 10.003833
2009-03-04 11:17:24 51°23.716 2°29.751 -999 3.432697 34.673201 10.073481
2009-03-04 11:18:24 51°23.721 2°29.761 -999 3.429279 34.662862 10.143129
2009-03-04 11:19:24 51°23.727 2°29.762 -999 3.426689 34.655052 10.317249
2009-03-04 11:20:24 51°23.733 2°29.757 -999 3.424618 34.635645 10.282425
2009-03-04 11:21:24 51°23.741 2°29.75 -999 3.423996 34.636398 10.247601
2009-03-04 11:22:24 51°23.75 2°29.743 -999 3.423478 34.634447 10.177953
2009-03-04 11:23:24 51°23.743 2°29.771 -999 3.421407 34.613098 10.038657
2009-03-04 11:24:24 51°23.727 2°29.798 -999 3.423996 34.645106 10.282425
2009-03-04 11:25:24 51°23.723 2°29.804 -999 3.424411 34.655572 10.386897
2009-03-04 11:26:24 51°23.725 2°29.803 -999 3.423996 34.65285 10.386897
2009-03-04 11:27:24 51°23.731 2°29.799 -999 3.42265 34.647391 10.317249
2009-03-04 11:28:24 51°23.737 2°29.792 -999 3.422443 34.646029 10.143129
2009-03-04 11:29:24 51°23.745 2°29.781 -999 3.419853 34.616909 10.352073
2009-03-04 11:30:24 51°23.753 2°29.769 -999 3.422132 34.644471 10.247601
2009-03-04 11:31:25 51°23.761 2°29.756 -999 3.421821 34.643882 10.177953
2009-03-04 11:32:24 51°23.767 2°29.748 -999 3.42151 34.642323 10.003833
2009-03-04 11:33:24 51°23.767 2°29.759 -999 3.42151 34.641355 10.038657
2009-03-04 11:34:24 51°23.751 2°29.778 -999 3.423064 34.648177 10.177953
2009-03-04 11:35:24 51°23.73 2°29.796 -999 3.423478 34.651868 10.282425
2009-03-04 11:36:24 51°23.717 2°29.807 -999 3.422236 34.645636 10.630666
2009-03-04 11:37:24 51°23.713 2°29.809 -999 3.420785 34.638041 10.66549
2009-03-04 11:38:25 51°23.715 2°29.807 -999 3.419853 34.633365 10.595842
2009-03-04 11:39:24 51°23.72 2°29.799 -999 3.418921 34.630625 10.700314
2009-03-04 11:40:25 51°23.726 2°29.787 -999 3.418714 34.628294 10.456545
2009-03-04 11:41:24 51°23.731 2°29.773 -999 3.418714 34.628294 10.630666
2009-03-04 11:42:25 51°23.737 2°29.759 -999 3.418714 34.627325 10.421721
2009-03-04 11:43:24 51°23.742 2°29.746 -999 3.419646 34.630066 10.386897
2009-03-04 11:44:24 51°23.743 2°29.742 -999 3.420578 34.637648 10.352073
2009-03-04 11:45:24 51°23.738 2°29.755 -999 3.420993 34.637466 10.456545
2009-03-04 11:46:24 51°23.724 2°29.782 -999 3.422236 34.6437 10.421721
2009-03-04 11:47:25 51°23.715 2°29.795 -999 3.422753 34.646619 10.49137
2009-03-04 11:48:24 51°23.709 2°29.798 -999 3.422857 34.646815 10.49137
2009-03-04 11:49:24 51°23.706 2°29.795 -999 3.422753 34.649524 10.700314
2009-03-04 11:50:24 51°23.706 2°29.788 -999 3.422443 34.646029 10.595842
2009-03-04 11:51:24 51°23.713 2°29.768 -999 3.422443 34.646029 10.386897
2009-03-04 11:52:24 51°23.716 2°29.759 -999 3.420993 34.638435 10.700314
2009-03-04 11:53:24 51°23.718 2°29.748 -999 3.421303 34.63612 10.735138
2009-03-04 11:54:24 51°23.72 2°29.738 -999 3.421407 34.641158 10.561018
2009-03-04 11:55:24 51°23.72 2°29.727 -999 3.421614 34.64252 10.526194
2009-03-04 11:56:25 51°23.722 2°29.713 -999 3.421821 34.642913 10.456545
2009-03-04 11:57:25 51°23.724 2°29.697 -999 3.421925 34.639237 10.386897
2009-03-04 11:58:25 51°23.726 2°29.681 -999 3.420992 34.628753 10.282425
2009-03-04 11:59:24 51°23.727 2°29.673 -999 3.421096 34.632822 10.421721
2009-03-04 12:00:24 51°23.736 2°29.709 -999 3.420992 34.632625 10.49137
2009-03-04 12:01:25 51°23.792 2°29.801 -999 3.420889 34.630492 10.874434
2009-03-04 12:02:24 51°23.892 2°29.977 -999 3.420475 34.629705 11.187851
2009-03-04 12:03:24 51°24.005 2°30.182 -999 3.416849 34.614093 11.77986
2009-03-04 12:04:24 51°24.118 2°30.387 -999 3.413846 34.602557 11.814684
2009-03-04 12:05:25 51°24.233 2°30.593 -999 3.412499 34.594176 11.710211
2009-03-04 12:06:24 51°24.342 2°30.796 -999 3.412603 34.593405 11.710211
2009-03-04 12:07:24 51°24.455 2°31 -999 3.413431 34.594987 11.77986
2009-03-04 12:08:23 51°24.565 2°31.204 -999 3.412085 34.589511 11.814684
2009-03-04 12:09:25 51°24.683 2°31.416 -999 3.411878 34.584273 11.849508
2009-03-04 12:10:24 51°24.795 2°31.618 -999 3.411049 34.581721 11.919156
2009-03-04 12:11:24 51°24.907 2°31.821 -999 3.409495 34.564225 11.95398
2009-03-04 12:12:23 51°25.02 2°32.024 -999 3.407113 34.54514 11.884332
2009-03-04 12:13:23 51°25.142 2°32.247 -999 3.407631 34.55194 12.093276
2009-03-04 12:14:24 51°25.266 2°32.472 -999 3.404627 34.527785 12.093276
2009-03-04 12:15:24 51°25.39 2°32.693 -999 3.402348 34.518562 12.232572
2009-03-04 12:16:25 51°25.515 2°32.919 -999 3.397169 34.487285 12.511165
2009-03-04 12:17:23 51°25.631 2°33.129 -999 3.394477 34.486923 12.963877
2009-03-04 12:18:24 51°25.755 2°33.359 -999 3.388262 34.453586 13.59071
2009-03-04 12:19:25 51°25.877 2°33.587 -999 3.383705 34.423425 13.625534
2009-03-04 12:20:23 51°25.995 2°33.799 -999 3.378216 34.391419 14.008599
2009-03-04 12:21:25 51°26.122 2°34.025 -999 3.374073 34.36298 14.008599
2009-03-04 12:22:24 51°26.24 2°34.243 -999 3.371898 34.349034 14.147895
2009-03-04 12:23:24 51°26.364 2°34.468 -999 3.368376 34.3305 14.565784
2009-03-04 12:24:23 51°26.482 2°34.689 -999 3.364337 34.302215 14.391664
2009-03-04 12:25:25 51°26.605 2°34.917 -999 3.360402 34.277986 14.496136
2009-03-04 12:26:24 51°26.72 2°35.14 -999 3.35688 34.255528 14.356839
2009-03-04 12:27:24 51°26.843 2°35.36 -999 3.355016 34.246023 14.322015
2009-03-04 12:28:25 51°26.964 2°35.593 -999 3.354602 34.241329 14.426488
2009-03-04 12:29:25 51°27.072 2°35.834 -999 3.351598 34.22181 14.426488
2009-03-04 12:30:24 51°27.18 2°36.069 -999 3.348699 34.20539 14.496136
2009-03-04 12:31:24 51°27.288 2°36.313 -999 3.34466 34.180876 14.844376
2009-03-04 12:32:25 51°27.398 2°36.557 -999 3.341967 34.160975 14.983672
2009-03-04 12:33:24 51°27.513 2°36.782 -999 3.339481 34.145349 15.192617
2009-03-04 12:34:24 51°27.643 2°36.996 -999 3.337514 34.133659 15.680154
2009-03-04 12:35:25 51°27.757 2°37.236 -999 3.335546 34.119062 15.714978
2009-03-04 12:36:25 51°27.858 2°37.487 -999 3.334614 34.111383 15.610505
2009-03-04 12:37:24 51°27.952 2°37.74 -999 3.335857 34.116786 15.923922
2009-03-04 12:38:24 51°28.046 2°37.997 -999 3.333475 34.091686 16.028394
2009-03-04 12:39:25 51°28.139 2°38.262 -999 3.330264 34.067805 15.784626
2009-03-04 12:40:23 51°28.223 2°38.517 -999 3.327882 34.050422 15.784626
2009-03-04 12:41:24 51°28.298 2°38.796 -999 3.324465 34.028031 16.16769
2009-03-04 12:42:25 51°28.37 2°39.081 -999 3.320426 34.002427 15.99357
2009-03-04 12:43:25 51°28.444 2°39.359 -999 3.322911 34.017146 15.471209
2009-03-04 12:44:24 51°28.516 2°39.633 -999 3.318976 33.991746 15.575681
2009-03-04 12:45:24 51°28.593 2°39.907 -999 3.310381 33.949053 15.645329
2009-03-04 12:46:25 51°28.668 2°40.191 -999 3.307274 33.93012 15.401561
2009-03-04 12:47:23 51°28.739 2°40.461 -999 3.305928 33.924454 15.401561
2009-03-04 12:48:24 51°28.806 2°40.751 -999 3.304892 33.927156 15.157793
2009-03-04 12:49:24 51°28.876 2°41.034 -999 3.305514 33.936166 15.122969
2009-03-04 12:50:25 51°28.948 2°41.321 -999 3.305307 33.933807 14.914024
2009-03-04 12:51:25 51°29.017 2°41.605 -999 3.306757 33.949352 14.774728
2009-03-04 12:52:24 51°29.085 2°41.883 -999 3.307378 33.956429 14.844376
2009-03-04 12:53:25 51°29.156 2°42.171 -999 3.309553 33.975393 14.774728
2009-03-04 12:54:23 51°29.221 2°42.441 -999 3.312038 33.996922 14.496136
2009-03-04 12:55:25 51°29.295 2°42.726 -999 3.315663 34.028512 14.496136
2009-03-04 12:56:24 51°29.363 2°42.999 -999 3.320634 34.070572 14.53096
2009-03-04 12:57:24 51°29.428 2°43.283 -999 3.321773 34.091302 14.322015
2009-03-04 12:58:23 51°29.494 2°43.559 -999 3.322394 34.104202 14.287191
2009-03-04 12:59:25 51°29.562 2°43.847 -999 3.321048 34.099546 14.147895
2009-03-04 13:00:24 51°29.629 2°44.119 -999 3.320841 34.111758 14.252367
2009-03-04 13:01:24 51°29.696 2°44.401 -999 3.319599 34.109256 14.322015
2009-03-04 13:02:25 51°29.765 2°44.683 -999 3.318252 34.105572 14.391664
2009-03-04 13:03:25 51°29.834 2°44.957 -999 3.316906 34.10286 14.635432
2009-03-04 13:04:24 51°29.899 2°45.235 -999 3.315456 34.101884 14.670256
2009-03-04 13:05:24 51°29.966 2°45.517 -999 3.313489 34.097918 14.774728
2009-03-04 13:06:25 51°30.035 2°45.804 -999 3.312246 34.096387 15.122969
2009-03-04 13:07:25 51°30.104 2°46.083 -999 3.310072 34.091027 15.401561
2009-03-04 13:08:24 51°30.172 2°46.359 -999 3.308518 34.090817 15.575681
2009-03-04 13:09:25 51°30.238 2°46.644 -999 3.306965 34.09256 15.854274
2009-03-04 13:10:25 51°30.304 2°46.925 -999 3.306551 34.09758 15.854274
2009-03-04 13:11:24 51°30.37 2°47.2 -999 3.307483 34.108243 15.610505
2009-03-04 13:12:24 51°30.435 2°47.481 -999 3.308001 34.11905 15.575681
2009-03-04 13:13:25 51°30.492 2°47.775 -999 3.309244 34.131316 15.471209
2009-03-04 13:14:25 51°30.55 2°48.063 -999 3.310072 34.149595 15.088145
2009-03-04 13:15:24 51°30.607 2°48.346 -999 3.311108 34.156559 15.122969
2009-03-04 13:16:25 51°30.662 2°48.641 -999 3.311626 34.170312 14.914024
2009-03-04 13:17:24 51°30.714 2°48.926 -999 3.312351 34.174696 15.018497
2009-03-04 13:18:25 51°30.77 2°49.221 -999 3.311419 34.167941 14.948848
2009-03-04 13:19:24 51°30.825 2°49.504 -999 3.310797 34.163763 15.018497
2009-03-04 13:20:25 51°30.883 2°49.796 -999 3.309555 34.155406 15.088145
2009-03-04 13:21:23 51°30.936 2°50.076 -999 3.308933 34.150248 15.053321
2009-03-04 13:22:25 51°30.993 2°50.375 -999 3.306862 34.131422 14.8792
2009-03-04 13:23:24 51°31.05 2°50.66 -999 3.303341 34.103811 14.461312
2009-03-04 13:24:25 51°31.109 2°50.952 -999 3.299406 34.073395 14.356839
2009-03-04 13:25:25 51°31.162 2°51.24 -999 3.296092 34.055943 14.217543
2009-03-04 13:26:25 51°31.201 2°51.537 -999 3.293814 34.028857 14.182719
2009-03-04 13:27:25 51°31.226 2°51.839 -999 3.291432 34.017182 14.182719
2009-03-04 13:28:24 51°31.265 2°52.13 -999 3.289672 34.006764 14.147895
2009-03-04 13:29:25 51°31.305 2°52.395 -999 3.288015 34.00046 14.078247
2009-03-04 13:30:24 51°31.324 2°52.559 -999 3.286669 33.992833 13.938951
2009-03-04 13:31:24 51°31.315 2°52.629 -999 3.28584 33.984306 13.033525
2009-03-04 13:32:25 51°31.308 2°52.635 -999 3.284805 33.978286 12.406692
2009-03-04 13:33:25 51°31.307 2°52.615 -999 3.284494 33.976675 12.476341
2009-03-04 13:34:27 51°31.304 2°52.598 -999 3.28408 33.974852 13.277294
2009-03-04 13:35:25 51°31.301 2°52.595 -999 3.283873 33.972476 13.451414
2009-03-04 13:36:24 51°31.297 2°52.6 -999 3.283769 33.968358 13.346942
2009-03-04 13:37:24 51°31.291 2°52.608 -999 3.283666 33.971076 12.824581
2009-03-04 13:38:25 51°31.285 2°52.618 -999 3.283769 33.960549 12.30222
2009-03-04 13:39:25 51°31.279 2°52.629 -999 3.283666 33.962289 12.023628
2009-03-04 13:40:24 51°31.277 2°52.638 -999 3.283976 33.963901 12.162924
2009-03-04 13:41:25 51°31.277 2°52.645 -999 3.283562 33.962077 11.710211
2009-03-04 13:42:25 51°31.278 2°52.65 -999 3.283251 33.95461 11.814684
2009-03-04 13:43:24 51°31.278 2°52.656 -999 3.28263 33.950411 12.023628
2009-03-04 13:44:24 51°31.279 2°52.659 -999 3.281595 33.941459 12.162924
2009-03-04 13:45:25 51°31.279 2°52.662 -999 3.281802 33.944811 11.95398
2009-03-04 13:46:25 51°31.28 2°52.664 -999 3.281491 33.941247 12.1281
2009-03-04 13:47:24 51°31.281 2°52.664 -999 3.282423 33.950962 12.232572
2009-03-04 13:48:25 51°31.28 2°52.661 -999 3.281491 33.943198 12.1281
2009-03-04 13:49:25 51°31.279 2°52.66 -999 3.280145 33.923855 12.267396
2009-03-04 13:50:25 51°31.279 2°52.659 -999 3.281698 33.94655 12.337044
2009-03-04 13:51:24 51°31.278 2°52.657 -999 3.281284 33.946677 12.337044
2009-03-04 13:52:24 51°31.278 2°52.656 -999 3.28118 33.945488 12.058452
2009-03-04 13:53:25 51°31.278 2°52.658 -999 3.281284 33.941798 11.919156
2009-03-04 13:54:25 51°31.279 2°52.659 -999 3.280456 33.941075 12.162924
2009-03-04 13:55:25 51°31.279 2°52.661 -999 3.280766 33.93976 12.058452
2009-03-04 13:56:25 51°31.279 2°52.661 -999 3.280559 33.93836 11.919156
2009-03-04 13:57:25 51°31.279 2°52.66 -999 3.280663 33.936621 11.884332
2009-03-04 13:58:25 51°31.278 2°52.66 -999 3.280456 33.934245 11.710211
2009-03-04 13:59:25 51°31.279 2°52.664 -999 3.280663 33.933695 11.745035
2009-03-04 14:00:25 51°31.281 2°52.667 -999 3.280145 33.932632 11.745035
2009-03-04 14:01:25 51°31.281 2°52.668 -999 3.280456 33.932294 11.745035
2009-03-04 14:02:25 51°31.281 2°52.67 -999 3.279627 33.929618 11.536091
2009-03-04 14:03:25 51°31.283 2°52.672 -999 3.279938 33.92733 11.640563
2009-03-04 14:04:25 51°31.284 2°52.673 -999 3.27942 33.924316 11.640563
2009-03-04 14:05:25 51°31.284 2°52.672 -999 3.278902 33.920326 11.501267
2009-03-04 14:06:25 51°31.287 2°52.677 -999 3.278799 33.917188 11.640563
2009-03-04 14:07:25 51°31.291 2°52.68 -999 3.27797 33.912559 11.431619
2009-03-04 14:08:25 51°31.293 2°52.68 -999 3.27766 33.908994 11.536091
2009-03-04 14:09:25 51°31.293 2°52.679 -999 3.277245 33.904242 11.153027
2009-03-04 14:10:25 51°31.293 2°52.677 -999 3.27621 33.89626 11.048554
2009-03-04 14:11:25 51°31.293 2°52.678 -999 3.276003 33.89096 11.153027
2009-03-04 14:12:25 51°31.291 2°52.677 -999 3.275278 33.889465 11.083378
2009-03-04 14:13:25 51°31.291 2°52.67 -999 3.275174 33.885354 11.048554
2009-03-04 14:14:25 51°31.292 2°52.662 -999 3.274864 33.883738 11.118203
2009-03-04 14:15:25 51°31.297 2°52.657 -999 3.274449 33.878986 11.153027
2009-03-04 14:16:24 51°31.303 2°52.652 -999 3.274242 33.876609 11.222675
2009-03-04 14:17:25 51°31.31 2°52.648 -999 3.274035 33.875207 11.431619
2009-03-04 14:18:25 51°31.317 2°52.642 -999 3.273828 33.871857 11.710211
2009-03-04 14:19:25 51°31.346 2°52.662 -999 3.273725 33.869695 11.814684
2009-03-04 14:20:25 51°31.385 2°52.821 -999 3.273932 33.874993 11.814684
2009-03-04 14:21:25 51°31.429 2°53.089 -999 3.272275 33.865723 11.710211
2009-03-04 14:22:25 51°31.484 2°53.389 -999 3.271136 33.847782 12.267396
2009-03-04 14:23:25 51°31.563 2°53.676 -999 3.267822 33.831173 12.023628
2009-03-04 14:24:24 51°31.655 2°53.946 -999 3.26513 33.814867 12.30222
2009-03-04 14:25:24 51°31.777 2°54.191 -999 3.263266 33.800278 12.371868
2009-03-04 14:26:24 51°31.903 2°54.431 -999 3.261817 33.789468 12.337044
2009-03-04 14:27:25 51°31.997 2°54.626 -999 3.260885 33.781684 11.95398
2009-03-04 14:28:24 51°32.011 2°54.74 -999 3.258606 33.760382 11.361971
2009-03-04 14:29:24 51°32.001 2°54.8 -999 3.256536 33.746318 10.282425
2009-03-04 14:30:24 51°31.989 2°54.84 -999 3.256432 33.736377 10.247601
2009-03-04 14:31:24 51°31.976 2°54.868 -999 3.256018 33.733564 10.108305
2009-03-04 14:32:24 51°31.964 2°54.888 -999 3.254568 33.72566 9.899361
2009-03-04 14:33:24 51°31.954 2°54.903 -999 3.254775 33.724151 10.386897
2009-03-04 14:34:24 51°31.946 2°54.917 -999 3.254568 33.724688 10.735138
2009-03-04 14:35:24 51°31.939 2°54.928 -999 3.254257 33.723063 10.735138
2009-03-04 14:36:26 51°31.932 2°54.94 -999 3.255913 33.588182 11.083378
2009-03-04 14:37:24 51°31.926 2°54.952 -999 3.270203 33.722647 11.083378
2009-03-04 14:38:24 51°31.921 2°54.963 -999 3.258709 33.694585 10.595842
2009-03-04 14:39:24 51°31.915 2°54.975 -999 3.256328 33.704111 10.944082
2009-03-04 14:40:25 51°31.91 2°54.988 -999 3.255085 33.696642 10.561018
2009-03-04 14:41:24 51°31.906 2°55.001 -999 3.253739 33.687983 11.257499
2009-03-04 14:42:24 51°31.902 2°55.014 -999 3.254982 33.709042 11.640563
2009-03-04 14:43:25 51°31.897 2°55.026 -999 3.254672 33.712273 11.710211
2009-03-04 14:44:24 51°31.894 2°55.038 -999 3.254154 33.70827 11.884332
2009-03-04 14:45:24 51°31.89 2°55.053 -999 3.253429 33.700917 11.675387
2009-03-04 14:46:24 51°31.887 2°55.067 -999 3.252911 33.707598 12.30222
2009-03-04 14:47:24 51°31.884 2°55.079 -999 3.25229 33.703376 12.162924
2009-03-04 14:48:24 51°31.881 2°55.093 -999 3.252704 33.702305 12.267396
2009-03-04 14:49:25 51°31.879 2°55.107 -999 3.254257 33.705575 12.023628
2009-03-04 14:50:26 51°31.876 2°55.122 -999 3.25374 33.715171 12.023628
2009-03-04 14:51:24 51°31.873 2°55.139 -999 3.251462 33.696773 11.884332
2009-03-04 14:52:26 51°31.866 2°55.166 -999 3.25084 33.693521 11.884332
2009-03-04 14:53:24 51°31.846 2°55.213 -999 3.250426 33.685848 11.536091
2009-03-04 14:54:24 51°31.819 2°55.267 -999 3.253118 33.712893 11.083378
2009-03-04 14:55:24 51°31.782 2°55.329 -999 3.253118 33.710949 10.526194
2009-03-04 14:56:24 51°31.74 2°55.392 -999 3.252911 33.707598 10.003833
2009-03-04 14:57:24 51°31.7 2°55.45 -999 3.253222 33.709223 9.829713
2009-03-04 14:58:24 51°31.665 2°55.513 -999 3.25374 33.714199 9.794888
2009-03-04 14:59:26 51°31.63 2°55.573 -999 3.25405 33.714853 9.585944
2009-03-04 15:00:24 51°31.597 2°55.631 -999 3.253636 33.712038 9.760064
2009-03-04 15:01:26 51°31.559 2°55.699 -999 3.253222 33.709223 9.446648
2009-03-04 15:02:24 51°31.522 2°55.766 -999 3.253015 33.704901 9.655592
2009-03-04 15:03:26 51°31.483 2°55.839 -999 3.253015 33.705873 9.969009
2009-03-04 15:04:26 51°31.445 2°55.911 -999 3.25374 33.710313 10.49137
2009-03-04 15:05:26 51°31.406 2°55.983 -999 3.254257 33.71626 10.769962
2009-03-04 15:06:26 51°31.368 2°56.055 -999 3.254154 33.719929 11.292323
2009-03-04 15:07:24 51°31.333 2°56.127 -999 3.25405 33.71874 11.536091
2009-03-04 15:08:26 51°31.294 2°56.202 -999 3.25374 33.720031 11.710211
2009-03-04 15:09:24 51°31.257 2°56.271 -999 3.253947 33.718522 11.814684
2009-03-04 15:10:26 51°31.216 2°56.341 -999 3.25374 33.717115 11.884332
2009-03-04 15:11:24 51°31.174 2°56.387 -999 3.253533 33.715708 12.023628
2009-03-04 15:12:26 51°31.127 2°56.409 -999 3.252911 33.712457 11.919156
2009-03-04 15:13:26 51°31.089 2°56.397 -999 3.246802 33.655858 12.197748
2009-03-04 15:14:26 51°31.064 2°56.349 -999 3.227543 33.486806 11.919156
2009-03-04 15:15:26 51°31.054 2°56.281 -999 3.216464 33.390315 11.884332
2009-03-04 15:16:24 51°31.052 2°56.21 -999 3.208906 33.326514 11.814684
2009-03-04 15:17:26 51°31.054 2°56.132 -999 3.204764 33.292349 11.849508
2009-03-04 15:18:24 51°31.06 2°56.058 -999 3.202487 33.274804 11.884332
2009-03-04 15:19:26 51°31.062 2°55.982 -999 3.203004 33.276908 11.95398
2009-03-04 15:20:25 51°31.078 2°55.916 -999 3.203522 33.277086 11.77986
2009-03-04 15:21:26 51°31.123 2°55.885 -999 3.2175 33.402226 12.162924
2009-03-04 15:22:26 51°31.178 2°55.881 -999 3.231892 33.528098 12.337044
2009-03-04 15:23:24 51°31.23 2°55.901 -999 3.240382 33.605361 12.441517
2009-03-04 15:24:26 51°31.271 2°55.936 -999 3.244628 33.639604 12.615637
2009-03-04 15:25:24 51°31.299 2°55.971 -999 3.246181 33.65066 12.406692
2009-03-04 15:26:25 51°31.325 2°56.005 -999 3.249598 33.6841 12.162924
2009-03-04 15:27:24 51°31.345 2°56.04 -999 3.251255 33.696337 11.95398
2009-03-04 15:28:25 51°31.362 2°56.09 -999 3.25229 33.705319 11.710211
2009-03-04 15:29:24 51°31.37 2°56.138 -999 3.252808 33.713211 12.162924
2009-03-04 15:30:24 51°31.375 2°56.184 -999 3.253118 33.711921 12.058452
2009-03-04 15:31:25 51°31.379 2°56.226 -999 3.253636 33.716897 11.814684
2009-03-04 15:32:24 51°31.382 2°56.263 -999 3.253533 33.717651 11.95398
2009-03-04 15:33:26 51°31.385 2°56.299 -999 3.25374 33.712256 11.745035
2009-03-04 15:34:24 51°31.386 2°56.331 -999 3.253533 33.710849 11.710211
2009-03-04 15:35:25 51°31.389 2°56.363 -999 3.253015 33.701987 11.361971
2009-03-04 15:36:24 51°31.39 2°56.397 -999 3.253429 33.701888 11.77986
2009-03-04 15:37:25 51°31.386 2°56.439 -999 3.252601 33.69723 11.77986
2009-03-04 15:38:25 51°31.376 2°56.484 -999 3.252808 33.696695 11.745035
2009-03-04 15:39:25 51°31.344 2°56.515 -999 3.250322 33.668156 11.640563
2009-03-04 15:40:25 51°31.227 2°56.5 -999 3.252911 33.702741 12.093276
2009-03-04 15:41:24 51°31.053 2°56.492 -999 3.252394 33.70165 13.799655
2009-03-04 15:42:25 51°30.864 2°56.481 -999 3.223401 33.446917 12.929053
2009-03-04 15:43:24 51°30.684 2°56.466 -999 3.214186 33.369903 13.172822
2009-03-04 15:44:25 51°30.498 2°56.49 -999 3.211494 33.3399 12.894229
2009-03-04 15:45:25 51°30.308 2°56.507 -999 3.208492 33.315964 12.859405
2009-03-04 15:46:25 51°30.122 2°56.49 -999 3.20435 33.267358 12.511165
2009-03-04 15:47:25 51°29.937 2°56.453 -999 3.197206 33.204412 12.023628
2009-03-04 15:48:25 51°29.75 2°56.426 -999 3.1941 33.17252 11.884332
2009-03-04 15:49:25 51°29.564 2°56.395 -999 3.173496 32.938464 13.486238
2009-03-04 15:50:24 51°29.38 2°56.366 -999 3.197515 33.079687 11.814684
2009-03-04 15:51:26 51°29.187 2°56.331 -999 3.194203 33.110448 11.919156
2009-03-04 15:52:24 51°29.006 2°56.3 -999 3.187784 33.096039 12.093276
2009-03-04 15:53:24 51°28.818 2°56.26 -999 3.186335 33.094699 11.95398
2009-03-04 15:54:25 51°28.629 2°56.22 -999 3.186749 33.109053 11.884332
2009-03-04 15:55:24 51°28.449 2°56.188 -999 3.181986 33.058082 10.874434
2009-03-04 15:56:25 51°28.265 2°56.154 -999 3.138505 32.668063 9.411824
2009-03-04 15:57:24 51°28.087 2°56.122 -999 3.13043 32.599689 8.993935
2009-03-04 15:58:25 51°27.901 2°56.094 -999 3.128567 32.578212 9.237704
2009-03-04 15:59:24 51°27.723 2°56.065 -999 3.127532 32.578605 9.481472
2009-03-04 16:00:25 51°27.537 2°56.033 -999 3.12691 32.549651 10.177953
2009-03-04 16:01:25 51°27.357 2°55.995 -999 3.125772 32.523288 10.038657
2009-03-04 16:02:25 51°27.177 2°55.958 -999 3.122976 32.488269 9.864537
2009-03-04 16:03:25 51°26.993 2°55.926 -999 3.121424 32.495902 10.212777
2009-03-04 16:04:24 51°26.812 2°55.888 -999 3.12132 32.484312 9.934185
2009-03-04 16:05:26 51°26.624 2°55.855 -999 3.121217 32.468009 9.690416
2009-03-04 16:06:24 51°26.448 2°55.824 -999 3.11956 32.449886 9.377
2009-03-04 16:07:25 51°26.262 2°55.791 -999 3.11749 32.431712 9.098407
2009-03-04 16:08:25 51°26.078 2°55.755 -999 3.12101 32.477901 9.794888
2009-03-04 16:09:25 51°25.893 2°55.718 -999 3.122355 32.497181 9.690416
2009-03-04 16:10:25 51°25.708 2°55.694 -999 3.117697 32.44353 9.20288
2009-03-04 16:11:25 51°25.522 2°55.667 -999 3.116351 32.418603 9.063583
2009-03-04 16:12:25 51°25.337 2°55.629 -999 3.117386 32.427691 9.063583
2009-03-04 16:13:24 51°25.155 2°55.601 -999 3.118628 32.432561 8.889463
2009-03-04 16:14:25 51°24.97 2°55.568 -999 3.1178 32.423973 9.098407
2009-03-04 16:15:24 51°24.794 2°55.543 -999 3.091817 32.144762 7.600973
2009-03-04 16:16:25 51°24.617 2°55.496 -999 3.087159 32.09773 7.322381
2009-03-04 16:17:25 51°24.443 2°55.439 -999 3.085814 32.072924 7.252733
2009-03-04 16:18:25 51°24.267 2°55.394 -999 3.0854 32.068164 7.322381
2009-03-04 16:19:25 51°24.091 2°55.346 -999 3.083537 32.070994 7.531325
2009-03-04 16:20:25 51°23.916 2°55.291 -999 3.083847 32.065234 7.183084
2009-03-04 16:21:25 51°23.739 2°55.245 -999 3.083123 32.068098 7.183084
2009-03-04 16:22:24 51°23.565 2°55.199 -999 3.085296 32.075369 7.392029
2009-03-04 16:23:25 51°23.387 2°55.15 -999 3.089126 32.121285 7.879566
2009-03-04 16:24:24 51°23.214 2°55.114 -999 3.089851 32.12775 8.053686
2009-03-04 16:25:25 51°23.035 2°55.079 -999 3.086331 32.07421 8.367102
2009-03-04 16:26:25 51°22.857 2°55.045 -999 3.087263 32.085853 8.645695
2009-03-04 16:27:24 51°22.681 2°55.007 -999 3.087987 32.105386 8.889463
2009-03-04 16:28:25 51°22.501 2°54.962 -999 3.089023 32.127571 8.924287
2009-03-04 16:29:24 51°22.324 2°54.92 -999 3.091093 32.143908 9.237704
2009-03-04 16:30:25 51°22.143 2°54.876 -999 3.093784 32.172062 9.133231
2009-03-04 16:31:24 51°21.968 2°54.841 -999 3.093991 32.164151 8.819815
2009-03-04 16:32:25 51°21.791 2°54.79 -999 3.089436 32.040973 7.949214
2009-03-04 16:33:25 51°21.616 2°54.748 -999 3.075461 31.809668 6.730372
2009-03-04 16:34:25 51°21.441 2°54.704 -999 3.066766 31.710232 6.765196
2009-03-04 16:35:25 51°21.264 2°54.664 -999 3.066145 31.712308 7.252733
2009-03-04 16:36:26 51°21.085 2°54.615 -999 3.067594 31.744504 7.566149
2009-03-04 16:37:25 51°20.911 2°54.569 -999 3.071424 31.792017 7.91439
2009-03-04 16:38:24 51°20.736 2°54.524 -999 3.074012 31.822562 8.158158
2009-03-04 16:39:25 51°20.555 2°54.48 -999 3.076289 31.8431 8.26263
2009-03-04 16:40:25 51°20.378 2°54.432 -999 3.078152 31.865353 8.576047
2009-03-04 16:41:25 51°20.2 2°54.379 -999 3.079602 31.881022 8.680519
2009-03-04 16:42:25 51°20.021 2°54.329 -999 3.082707 31.911959 8.959111
2009-03-04 16:43:25 51°19.843 2°54.282 -999 3.086433 31.950003 9.307352
2009-03-04 16:44:25 51°19.662 2°54.234 -999 3.089953 31.98197 9.55112
2009-03-04 16:45:26 51°19.482 2°54.181 -999 3.091712 31.99008 9.794888
2009-03-04 16:46:25 51°19.305 2°54.135 -999 3.095025 32.014102 10.143129
2009-03-04 16:47:24 51°19.131 2°54.075 -999 3.1002 32.064059 10.456545
2009-03-04 16:48:25 51°18.949 2°54.016 -999 3.10548 32.10869 10.66549
2009-03-04 16:49:25 51°18.771 2°53.957 -999 3.112829 32.173256 10.804786
2009-03-04 16:50:25 51°18.594 2°53.891 -999 3.120076 32.237521 11.431619
2009-03-04 16:51:25 51°18.418 2°53.829 -999 3.131048 32.325698 12.093276
2009-03-04 16:52:25 51°18.241 2°53.769 -999 3.147612 32.460764 14.287191
2009-03-04 16:53:25 51°18.064 2°53.706 -999 3.162313 32.58177 16.16769
2009-03-04 16:54:25 51°17.887 2°53.637 -999 3.177635 32.710573 18.535726
2009-03-04 16:55:25 51°17.71 2°53.565 -999 3.192543 32.830669 20.346577
2009-03-04 16:56:25 51°17.535 2°53.485 -999 3.207245 32.942518 21.391298
2009-03-04 16:57:25 51°17.36 2°53.408 -999 3.21325 32.974091 19.615272
2009-03-04 16:58:25 51°17.183 2°53.34 -999 0.441826 3.262283 19.441151
2009-03-04 16:59:25 51°17 2°53.313 -999 0.104884 0.726464 19.336679
2009-03-04 17:00:25 51°16.815 2°53.322 -999 0.060424 0.413487 19.475975
2009-03-04 17:01:25 51°16.631 2°53.368 -999 0.053118 0.364789 18.605374
2009-03-04 17:02:25 51°16.447 2°53.428 -999 0.051162 0.352778 17.525828
2009-03-04 17:03:25 51°16.264 2°53.49 -999 0.050339 0.347901 17.28206
2009-03-04 17:04:25 51°16.08 2°53.556 -999 0.050236 0.344348 16.898995
2009-03-04 17:05:25 51°15.896 2°53.619 -999 0.050545 0.344595 7.043788
2009-03-04 17:06:25 51°15.723 2°53.738 -999 0.050133 0.344299 -0.478207
2009-03-04 17:07:25 51°15.572 2°53.938 -999 0.049619 0.344579 0.462042
2009-03-04 17:08:25 51°15.445 2°54.12 -999 0.049001 0.343385 -0.234439
2009-03-04 17:09:26 51°15.323 2°54.288 -999 0.04859 0.343191 -0.687152
2009-03-04 17:10:25 51°15.221 2°54.429 -999 0.048281 0.342893 -0.721976
2009-03-04 17:11:25 51°15.131 2°54.54 -999 0.048075 0.342994 -0.58268
2009-03-04 17:12:25 51°15.044 2°54.647 -999 0.047869 0.342813 0.078977
2009-03-04 17:13:25 51°14.927 2°54.769 -999 0.047664 0.342494 1.47194
2009-03-04 17:14:25 51°14.75 2°54.868 -999 0.047458 0.341973 0.287922
2009-03-04 17:15:25 51°14.562 2°54.922 -999 0.047458 0.342338 -1.139864
2009-03-04 17:16:25 51°14.39 2°55.074 -999 0.047458 0.342303 -1.139864
2009-03-04 17:17:25 51°14.246 2°55.278 -999 0.047458 0.34226 -1.139864
2009-03-04 17:18:29 51°14.112 2°55.419 -999 0.047458 0.342251 -1.139864
2009-03-04 17:19:28 51°13.995 2°55.507 -999 0.047458 0.342207 -1.139864
2009-03-04 17:20:30 51°13.86 2°55.602 -999 0.047458 0.34219 -1.174688
2009-03-04 17:21:29 51°13.744 2°55.715 -999 0.047458 0.342094 -1.174688
2009-03-04 17:22:29 51°13.688 2°55.832 -999 0.047458 0.342034 -1.174688
2009-03-04 17:23:30 51°13.668 2°55.928 -999 0.047458 0.34199 -1.139864
2009-03-04 17:24:30 51°13.665 2°55.954 -999 0.047561 0.342716 -1.174688